sensor_id;sensor_type;location;lat;lon;timestamp;pressure;altitude;pressure_sealevel;temperature;humidity
22653;BME280;11493;43.344;26.226;2023-07-30T00:00:50;98964.25;;;19.24;96.36
22653;BME280;11493;43.344;26.226;2023-07-30T00:03:17;98960.97;;;19.15;96.63
22653;BME280;11493;43.344;26.226;2023-07-30T00:05:52;98970.13;;;19.16;97.73
22653;BME280;11493;43.344;26.226;2023-07-30T00:08:19;98964.19;;;19.17;97.08
22653;BME280;11493;43.344;26.226;2023-07-30T00:10:46;98955.69;;;19.07;97.85
22653;BME280;11493;43.344;26.226;2023-07-30T00:13:13;98961.97;;;19.00;97.83
22653;BME280;11493;43.344;26.226;2023-07-30T00:15:40;98971.44;;;18.92;98.65
22653;BME280;11493;43.344;26.226;2023-07-30T00:18:07;98969.81;;;18.91;98.75
22653;BME280;11493;43.344;26.226;2023-07-30T00:20:34;98954.13;;;18.79;98.96
22653;BME280;11493;43.344;26.226;2023-07-30T00:23:02;98960.56;;;18.83;99.00
22653;BME280;11493;43.344;26.226;2023-07-30T00:25:30;98955.31;;;18.78;98.96
22653;BME280;11493;43.344;26.226;2023-07-30T00:27:57;98958.59;;;18.84;98.76
22653;BME280;11493;43.344;26.226;2023-07-30T00:30:24;98969.03;;;18.90;98.17
22653;BME280;11493;43.344;26.226;2023-07-30T00:32:51;98967.31;;;18.82;97.83
22653;BME280;11493;43.344;26.226;2023-07-30T00:35:18;98976.38;;;18.76;98.56
22653;BME280;11493;43.344;26.226;2023-07-30T00:37:45;98970.28;;;18.66;99.67
22653;BME280;11493;43.344;26.226;2023-07-30T00:40:13;98950.22;;;18.54;99.96
22653;BME280;11493;43.344;26.226;2023-07-30T00:42:40;98960.66;;;18.60;99.87
22653;BME280;11493;43.344;26.226;2023-07-30T00:45:07;98970.25;;;18.63;99.46
22653;BME280;11493;43.344;26.226;2023-07-30T00:47:35;98959.81;;;18.56;99.31
22653;BME280;11493;43.344;26.226;2023-07-30T00:50:02;98958.22;;;18.59;99.84
22653;BME280;11493;43.344;26.226;2023-07-30T00:52:29;98954.94;;;18.50;99.67
22653;BME280;11493;43.344;26.226;2023-07-30T00:54:57;98962.19;;;18.58;99.47
22653;BME280;11493;43.344;26.226;2023-07-30T00:57:26;98967.34;;;18.56;99.60
22653;BME280;11493;43.344;26.226;2023-07-30T00:59:53;98961.38;;;18.54;99.68
22653;BME280;11493;43.344;26.226;2023-07-30T01:02:21;98965.31;;;18.53;99.87
22653;BME280;11493;43.344;26.226;2023-07-30T01:04:48;98963.34;;;18.53;99.31
22653;BME280;11493;43.344;26.226;2023-07-30T01:07:16;98947.75;;;18.49;99.33
22653;BME280;11493;43.344;26.226;2023-07-30T01:09:43;98961.38;;;18.57;99.09
22653;BME280;11493;43.344;26.226;2023-07-30T01:12:10;98972.16;;;18.59;99.31
22653;BME280;11493;43.344;26.226;2023-07-30T01:14:38;98950.16;;;18.50;99.25
22653;BME280;11493;43.344;26.226;2023-07-30T01:17:06;98967.75;;;18.58;99.68
22653;BME280;11493;43.344;26.226;2023-07-30T01:19:33;98966.19;;;18.57;99.80
22653;BME280;11493;43.344;26.226;2023-07-30T01:22:00;98951.78;;;18.51;100.00
22653;BME280;11493;43.344;26.226;2023-07-30T01:24:27;98971.69;;;18.53;100.00
22653;BME280;11493;43.344;26.226;2023-07-30T01:27:07;98954.41;;;18.41;100.00
22653;BME280;11493;43.344;26.226;2023-07-30T01:29:42;98972.88;;;18.52;100.00
22653;BME280;11493;43.344;26.226;2023-07-30T01:32:11;98952.41;;;18.41;99.92
22653;BME280;11493;43.344;26.226;2023-07-30T01:34:41;98967.72;;;18.54;100.00
22653;BME280;11493;43.344;26.226;2023-07-30T01:37:11;98969.66;;;18.50;100.00
22653;BME280;11493;43.344;26.226;2023-07-30T01:39:40;98960.41;;;18.43;100.00
22653;BME280;11493;43.344;26.226;2023-07-30T01:42:11;98966.34;;;18.41;100.00
22653;BME280;11493;43.344;26.226;2023-07-30T01:44:39;98945.94;;;18.33;100.00
22653;BME280;11493;43.344;26.226;2023-07-30T01:47:07;98958.41;;;18.43;100.00
22653;BME280;11493;43.344;26.226;2023-07-30T01:49:34;98952.31;;;18.34;100.00
22653;BME280;11493;43.344;26.226;2023-07-30T01:52:01;98953.06;;;18.31;100.00
22653;BME280;11493;43.344;26.226;2023-07-30T01:54:27;98951.84;;;18.28;100.00
22653;BME280;11493;43.344;26.226;2023-07-30T01:56:54;98960.25;;;18.32;100.00
22653;BME280;11493;43.344;26.226;2023-07-30T01:59:23;98962.53;;;18.26;100.00
22653;BME280;11493;43.344;26.226;2023-07-30T02:01:50;98956.81;;;18.16;100.00
22653;BME280;11493;43.344;26.226;2023-07-30T02:04:17;98951.06;;;18.05;100.00
22653;BME280;11493;43.344;26.226;2023-07-30T02:06:44;98958.19;;;18.02;100.00
22653;BME280;11493;43.344;26.226;2023-07-30T02:09:11;98958.00;;;17.92;100.00
22653;BME280;11493;43.344;26.226;2023-07-30T02:11:39;98960.00;;;17.91;100.00
22653;BME280;11493;43.344;26.226;2023-07-30T02:14:07;98946.75;;;17.85;100.00
22653;BME280;11493;43.344;26.226;2023-07-30T02:16:34;98961.22;;;17.94;100.00
22653;BME280;11493;43.344;26.226;2023-07-30T02:19:01;98953.09;;;17.82;100.00
22653;BME280;11493;43.344;26.226;2023-07-30T02:21:28;98959.84;;;17.81;100.00
22653;BME280;11493;43.344;26.226;2023-07-30T02:23:57;98952.13;;;17.70;100.00
22653;BME280;11493;43.344;26.226;2023-07-30T02:26:23;98974.56;;;17.81;100.00
22653;BME280;11493;43.344;26.226;2023-07-30T02:28:50;98962.19;;;17.79;100.00
22653;BME280;11493;43.344;26.226;2023-07-30T02:31:17;98938.78;;;17.60;100.00
22653;BME280;11493;43.344;26.226;2023-07-30T02:33:44;98961.34;;;17.75;100.00
22653;BME280;11493;43.344;26.226;2023-07-30T02:36:11;98965.72;;;17.76;100.00
22653;BME280;11493;43.344;26.226;2023-07-30T02:38:38;98963.25;;;17.70;100.00
22653;BME280;11493;43.344;26.226;2023-07-30T02:41:05;98976.34;;;17.70;100.00
22653;BME280;11493;43.344;26.226;2023-07-30T02:43:32;98965.44;;;17.61;100.00
22653;BME280;11493;43.344;26.226;2023-07-30T02:45:59;98966.13;;;17.55;100.00
22653;BME280;11493;43.344;26.226;2023-07-30T02:48:26;98974.41;;;17.51;100.00
22653;BME280;11493;43.344;26.226;2023-07-30T02:50:53;98971.63;;;17.51;100.00
22653;BME280;11493;43.344;26.226;2023-07-30T02:53:20;98982.75;;;17.51;100.00
22653;BME280;11493;43.344;26.226;2023-07-30T02:55:47;98964.31;;;17.43;100.00
22653;BME280;11493;43.344;26.226;2023-07-30T02:58:15;98974.69;;;17.46;100.00
22653;BME280;11493;43.344;26.226;2023-07-30T03:00:42;98966.78;;;17.48;100.00
22653;BME280;11493;43.344;26.226;2023-07-30T03:03:09;98976.44;;;17.54;100.00
22653;BME280;11493;43.344;26.226;2023-07-30T03:05:36;98979.66;;;17.56;100.00
22653;BME280;11493;43.344;26.226;2023-07-30T03:08:03;98976.06;;;17.56;100.00
22653;BME280;11493;43.344;26.226;2023-07-30T03:10:30;98969.69;;;17.55;100.00
22653;BME280;11493;43.344;26.226;2023-07-30T03:12:57;98972.84;;;17.54;100.00
22653;BME280;11493;43.344;26.226;2023-07-30T03:15:24;98982.25;;;17.46;100.00
22653;BME280;11493;43.344;26.226;2023-07-30T03:17:51;98983.41;;;17.45;100.00
22653;BME280;11493;43.344;26.226;2023-07-30T03:20:18;98967.31;;;17.34;100.00
22653;BME280;11493;43.344;26.226;2023-07-30T03:22:45;98970.31;;;17.45;100.00
22653;BME280;11493;43.344;26.226;2023-07-30T03:25:12;98982.00;;;17.54;100.00
22653;BME280;11493;43.344;26.226;2023-07-30T03:27:39;98982.88;;;17.58;100.00
22653;BME280;11493;43.344;26.226;2023-07-30T03:30:06;98986.09;;;17.60;100.00
22653;BME280;11493;43.344;26.226;2023-07-30T03:32:34;98972.91;;;17.57;100.00
22653;BME280;11493;43.344;26.226;2023-07-30T03:35:01;98987.31;;;17.63;100.00
22653;BME280;11493;43.344;26.226;2023-07-30T03:37:28;98980.47;;;17.57;100.00
22653;BME280;11493;43.344;26.226;2023-07-30T03:39:54;98980.53;;;17.60;100.00
22653;BME280;11493;43.344;26.226;2023-07-30T03:42:21;98985.34;;;17.63;100.00
22653;BME280;11493;43.344;26.226;2023-07-30T03:44:48;98966.19;;;17.58;100.00
22653;BME280;11493;43.344;26.226;2023-07-30T03:47:16;98976.56;;;17.61;100.00
22653;BME280;11493;43.344;26.226;2023-07-30T03:49:43;98985.50;;;17.70;100.00
22653;BME280;11493;43.344;26.226;2023-07-30T03:52:10;98986.38;;;17.75;100.00
22653;BME280;11493;43.344;26.226;2023-07-30T03:54:56;98988.06;;;17.83;100.00
22653;BME280;11493;43.344;26.226;2023-07-30T03:57:23;98983.66;;;17.78;100.00
22653;BME280;11493;43.344;26.226;2023-07-30T03:59:50;98988.19;;;17.90;100.00
22653;BME280;11493;43.344;26.226;2023-07-30T04:02:17;99000.13;;;17.90;100.00
22653;BME280;11493;43.344;26.226;2023-07-30T04:04:44;98999.56;;;18.04;100.00
22653;BME280;11493;43.344;26.226;2023-07-30T04:07:14;98999.00;;;18.18;100.00
22653;BME280;11493;43.344;26.226;2023-07-30T04:09:41;99005.13;;;18.27;100.00
22653;BME280;11493;43.344;26.226;2023-07-30T04:12:08;98998.69;;;18.23;100.00
22653;BME280;11493;43.344;26.226;2023-07-30T04:14:36;98990.41;;;18.26;100.00
22653;BME280;11493;43.344;26.226;2023-07-30T04:17:03;99004.13;;;18.38;100.00
22653;BME280;11493;43.344;26.226;2023-07-30T04:19:30;99009.78;;;18.46;100.00
22653;BME280;11493;43.344;26.226;2023-07-30T04:21:57;99012.34;;;18.58;99.91
22653;BME280;11493;43.344;26.226;2023-07-30T04:24:24;98987.66;;;18.56;98.66
22653;BME280;11493;43.344;26.226;2023-07-30T04:26:52;99010.31;;;18.81;98.61
22653;BME280;11493;43.344;26.226;2023-07-30T04:29:19;99000.44;;;18.87;97.59
22653;BME280;11493;43.344;26.226;2023-07-30T04:31:47;99004.34;;;19.13;96.78
22653;BME280;11493;43.344;26.226;2023-07-30T04:34:13;99017.34;;;19.35;95.14
22653;BME280;11493;43.344;26.226;2023-07-30T04:36:41;98997.34;;;19.26;94.71
22653;BME280;11493;43.344;26.226;2023-07-30T04:39:09;98992.63;;;19.33;93.84
22653;BME280;11493;43.344;26.226;2023-07-30T04:41:36;99012.81;;;19.53;93.61
22653;BME280;11493;43.344;26.226;2023-07-30T04:44:04;99010.84;;;19.57;93.50
22653;BME280;11493;43.344;26.226;2023-07-30T04:46:31;99010.66;;;19.77;92.67
22653;BME280;11493;43.344;26.226;2023-07-30T04:49:02;99012.00;;;19.90;90.93
22653;BME280;11493;43.344;26.226;2023-07-30T04:51:31;99016.41;;;19.94;90.88
22653;BME280;11493;43.344;26.226;2023-07-30T04:53:58;99009.22;;;19.93;91.46
22653;BME280;11493;43.344;26.226;2023-07-30T04:56:25;99014.88;;;20.00;91.04
22653;BME280;11493;43.344;26.226;2023-07-30T04:58:54;99018.13;;;20.10;91.24
22653;BME280;11493;43.344;26.226;2023-07-30T05:01:21;99015.41;;;20.20;90.74
22653;BME280;11493;43.344;26.226;2023-07-30T05:03:48;99008.25;;;20.23;90.55
22653;BME280;11493;43.344;26.226;2023-07-30T05:06:15;99024.00;;;20.42;90.20
22653;BME280;11493;43.344;26.226;2023-07-30T05:08:43;99012.41;;;20.40;90.16
22653;BME280;11493;43.344;26.226;2023-07-30T05:11:10;99006.50;;;20.52;89.96
22653;BME280;11493;43.344;26.226;2023-07-30T05:13:37;99017.41;;;20.67;90.03
22653;BME280;11493;43.344;26.226;2023-07-30T05:16:04;99031.88;;;20.87;90.00
22653;BME280;11493;43.344;26.226;2023-07-30T05:18:31;99020.84;;;21.16;89.73
22653;BME280;11493;43.344;26.226;2023-07-30T05:20:58;99014.56;;;21.40;88.01
22653;BME280;11493;43.344;26.226;2023-07-30T05:23:25;99022.22;;;21.68;87.28
22653;BME280;11493;43.344;26.226;2023-07-30T05:25:52;99023.44;;;21.85;86.08
22653;BME280;11493;43.344;26.226;2023-07-30T05:28:19;99020.72;;;22.03;85.89
22653;BME280;11493;43.344;26.226;2023-07-30T05:30:46;99025.13;;;22.21;85.08
22653;BME280;11493;43.344;26.226;2023-07-30T05:33:13;99033.50;;;22.39;83.20
22653;BME280;11493;43.344;26.226;2023-07-30T05:35:40;99026.28;;;22.45;81.78
22653;BME280;11493;43.344;26.226;2023-07-30T05:38:07;99027.47;;;22.62;82.57
22653;BME280;11493;43.344;26.226;2023-07-30T05:40:35;99025.44;;;22.77;82.46
22653;BME280;11493;43.344;26.226;2023-07-30T05:43:05;99007.03;;;22.79;82.21
22653;BME280;11493;43.344;26.226;2023-07-30T05:45:33;99019.41;;;23.00;82.23
22653;BME280;11493;43.344;26.226;2023-07-30T05:48:01;99019.75;;;23.16;81.92
22653;BME280;11493;43.344;26.226;2023-07-30T05:50:28;99032.13;;;23.29;83.06
22653;BME280;11493;43.344;26.226;2023-07-30T05:52:55;99018.09;;;23.22;82.11
22653;BME280;11493;43.344;26.226;2023-07-30T05:55:22;99029.69;;;23.31;81.53
22653;BME280;11493;43.344;26.226;2023-07-30T05:57:49;99036.47;;;23.41;81.00
22653;BME280;11493;43.344;26.226;2023-07-30T06:00:16;99033.22;;;23.56;80.91
22653;BME280;11493;43.344;26.226;2023-07-30T06:02:43;99030.00;;;23.62;80.56
22653;BME280;11493;43.344;26.226;2023-07-30T06:05:10;99018.38;;;23.59;80.54
22653;BME280;11493;43.344;26.226;2023-07-30T06:07:37;99016.28;;;23.71;78.99
22653;BME280;11493;43.344;26.226;2023-07-30T06:10:05;99017.03;;;23.78;79.24
22653;BME280;11493;43.344;26.226;2023-07-30T06:12:32;99018.56;;;23.90;79.01
22653;BME280;11493;43.344;26.226;2023-07-30T06:14:59;99029.31;;;24.02;78.54
22653;BME280;11493;43.344;26.226;2023-07-30T06:17:25;99033.69;;;24.10;77.95
22653;BME280;11493;43.344;26.226;2023-07-30T06:19:52;99025.13;;;24.24;77.99
22653;BME280;11493;43.344;26.226;2023-07-30T06:22:19;99028.69;;;24.36;76.98
22653;BME280;11493;43.344;26.226;2023-07-30T06:24:46;99019.00;;;24.40;76.46
22653;BME280;11493;43.344;26.226;2023-07-30T06:27:13;99032.00;;;24.65;77.51
22653;BME280;11493;43.344;26.226;2023-07-30T06:29:40;99031.16;;;24.71;75.59
22653;BME280;11493;43.344;26.226;2023-07-30T06:32:07;99015.34;;;24.84;75.45
22653;BME280;11493;43.344;26.226;2023-07-30T06:34:35;99028.91;;;24.93;75.78
22653;BME280;11493;43.344;26.226;2023-07-30T06:37:02;99021.53;;;25.10;74.89
22653;BME280;11493;43.344;26.226;2023-07-30T06:39:29;99020.19;;;25.21;73.73
22653;BME280;11493;43.344;26.226;2023-07-30T06:41:56;99005.91;;;25.36;73.15
22653;BME280;11493;43.344;26.226;2023-07-30T06:44:23;99002.50;;;25.48;72.35
22653;BME280;11493;43.344;26.226;2023-07-30T06:46:52;99008.00;;;25.59;72.42
22653;BME280;11493;43.344;26.226;2023-07-30T06:49:19;98999.06;;;25.67;70.18
22653;BME280;11493;43.344;26.226;2023-07-30T06:51:46;99009.97;;;25.92;70.18
22653;BME280;11493;43.344;26.226;2023-07-30T06:54:13;98986.50;;;25.99;70.51
22653;BME280;11493;43.344;26.226;2023-07-30T06:56:40;99006.31;;;26.18;69.51
22653;BME280;11493;43.344;26.226;2023-07-30T06:59:07;99002.09;;;26.30;69.38
22653;BME280;11493;43.344;26.226;2023-07-30T07:01:34;99004.25;;;26.46;68.05
22653;BME280;11493;43.344;26.226;2023-07-30T07:04:02;98985.69;;;26.48;67.11
22653;BME280;11493;43.344;26.226;2023-07-30T07:06:29;99000.69;;;26.65;67.23
22653;BME280;11493;43.344;26.226;2023-07-30T07:08:56;98991.13;;;26.79;66.33
22653;BME280;11493;43.344;26.226;2023-07-30T07:11:23;98994.91;;;26.92;65.65
22653;BME280;11493;43.344;26.226;2023-07-30T07:13:51;98999.16;;;27.04;65.25
22653;BME280;11493;43.344;26.226;2023-07-30T07:16:18;98990.03;;;27.16;63.90
22653;BME280;11493;43.344;26.226;2023-07-30T07:18:55;98989.22;;;27.35;64.48
22653;BME280;11493;43.344;26.226;2023-07-30T07:21:22;98987.41;;;27.45;62.88
22653;BME280;11493;43.344;26.226;2023-07-30T07:23:49;98985.91;;;27.57;62.82
22653;BME280;11493;43.344;26.226;2023-07-30T07:26:16;98981.19;;;27.70;62.91
22653;BME280;11493;43.344;26.226;2023-07-30T07:28:43;98980.16;;;27.80;62.70
22653;BME280;11493;43.344;26.226;2023-07-30T07:31:10;98969.84;;;27.90;61.25
22653;BME280;11493;43.344;26.226;2023-07-30T07:33:38;98976.47;;;27.99;58.38
22653;BME280;11493;43.344;26.226;2023-07-30T07:36:06;98969.59;;;28.17;59.03
22653;BME280;11493;43.344;26.226;2023-07-30T07:38:34;98972.84;;;28.31;58.94
22653;BME280;11493;43.344;26.226;2023-07-30T07:41:01;98967.09;;;28.35;59.03
22653;BME280;11493;43.344;26.226;2023-07-30T07:43:29;98966.41;;;28.31;57.88
22653;BME280;11493;43.344;26.226;2023-07-30T07:45:56;98961.25;;;28.42;58.31
22653;BME280;11493;43.344;26.226;2023-07-30T07:48:23;98963.44;;;28.51;55.86
22653;BME280;11493;43.344;26.226;2023-07-30T07:50:50;98963.72;;;28.56;55.97
22653;BME280;11493;43.344;26.226;2023-07-30T07:53:20;98957.16;;;28.59;54.93
22653;BME280;11493;43.344;26.226;2023-07-30T07:55:47;98947.47;;;28.73;53.80
22653;BME280;11493;43.344;26.226;2023-07-30T07:58:14;98947.91;;;28.88;53.13
22653;BME280;11493;43.344;26.226;2023-07-30T08:00:42;98947.72;;;28.95;53.30
22653;BME280;11493;43.344;26.226;2023-07-30T08:03:08;98946.06;;;29.23;51.65
22653;BME280;11493;43.344;26.226;2023-07-30T08:05:36;98954.56;;;29.23;51.34
22653;BME280;11493;43.344;26.226;2023-07-30T08:08:03;98944.59;;;29.31;50.12
22653;BME280;11493;43.344;26.226;2023-07-30T08:10:31;98944.94;;;29.33;51.33
22653;BME280;11493;43.344;26.226;2023-07-30T08:12:58;98946.06;;;29.35;51.37
22653;BME280;11493;43.344;26.226;2023-07-30T08:15:28;98951.56;;;29.42;48.56
22653;BME280;11493;43.344;26.226;2023-07-30T08:18:05;98940.25;;;29.55;46.69
22653;BME280;11493;43.344;26.226;2023-07-30T08:20:33;98944.78;;;29.65;43.84
22653;BME280;11493;43.344;26.226;2023-07-30T08:23:00;98945.34;;;29.60;43.98
22653;BME280;11493;43.344;26.226;2023-07-30T08:25:27;98941.94;;;29.53;41.64
22653;BME280;11493;43.344;26.226;2023-07-30T08:27:54;98944.91;;;29.62;42.21
22653;BME280;11493;43.344;26.226;2023-07-30T08:30:24;98945.31;;;29.73;41.09
22653;BME280;11493;43.344;26.226;2023-07-30T08:33:07;98941.81;;;29.82;40.51
22653;BME280;11493;43.344;26.226;2023-07-30T08:35:37;98936.69;;;29.89;40.64
22653;BME280;11493;43.344;26.226;2023-07-30T08:38:28;98936.13;;;29.94;41.64
22653;BME280;11493;43.344;26.226;2023-07-30T08:40:58;98935.78;;;29.92;41.50
22653;BME280;11493;43.344;26.226;2023-07-30T08:43:28;98925.44;;;29.98;42.52
22653;BME280;11493;43.344;26.226;2023-07-30T08:45:57;98934.19;;;30.17;42.07
22653;BME280;11493;43.344;26.226;2023-07-30T08:48:24;98935.16;;;30.35;43.14
22653;BME280;11493;43.344;26.226;2023-07-30T08:50:57;98928.25;;;30.36;42.17
22653;BME280;11493;43.344;26.226;2023-07-30T08:53:25;98921.38;;;30.47;42.69
22653;BME280;11493;43.344;26.226;2023-07-30T08:55:54;98922.81;;;30.51;41.36
22653;BME280;11493;43.344;26.226;2023-07-30T08:58:25;98922.16;;;30.60;40.52
22653;BME280;11493;43.344;26.226;2023-07-30T09:00:55;98920.03;;;30.73;38.66
22653;BME280;11493;43.344;26.226;2023-07-30T09:03:28;98915.69;;;30.81;39.68
22653;BME280;11493;43.344;26.226;2023-07-30T09:05:59;98904.13;;;30.76;40.25
22653;BME280;11493;43.344;26.226;2023-07-30T09:08:26;98906.84;;;30.79;39.87
22653;BME280;11493;43.344;26.226;2023-07-30T09:10:54;98907.69;;;30.89;39.00
22653;BME280;11493;43.344;26.226;2023-07-30T09:13:22;98913.31;;;31.01;38.81
22653;BME280;11493;43.344;26.226;2023-07-30T09:15:52;98908.81;;;30.91;38.19
22653;BME280;11493;43.344;26.226;2023-07-30T09:18:19;98889.78;;;30.79;38.47
22653;BME280;11493;43.344;26.226;2023-07-30T09:20:47;98904.91;;;30.98;37.93
22653;BME280;11493;43.344;26.226;2023-07-30T09:23:17;98910.00;;;31.03;39.26
22653;BME280;11493;43.344;26.226;2023-07-30T09:25:47;98898.03;;;31.08;38.24
22653;BME280;11493;43.344;26.226;2023-07-30T09:28:18;98909.03;;;31.19;38.19
22653;BME280;11493;43.344;26.226;2023-07-30T09:30:48;98895.78;;;31.25;37.72
22653;BME280;11493;43.344;26.226;2023-07-30T09:33:18;98890.84;;;31.16;38.74
22653;BME280;11493;43.344;26.226;2023-07-30T09:35:46;98889.19;;;31.06;38.88
22653;BME280;11493;43.344;26.226;2023-07-30T09:38:13;98868.63;;;31.02;40.05
22653;BME280;11493;43.344;26.226;2023-07-30T09:40:42;98886.00;;;31.26;38.74
22653;BME280;11493;43.344;26.226;2023-07-30T09:43:10;98883.34;;;31.31;38.75
22653;BME280;11493;43.344;26.226;2023-07-30T09:45:37;98880.22;;;31.38;38.78
22653;BME280;11493;43.344;26.226;2023-07-30T09:48:05;98883.09;;;31.48;37.67
22653;BME280;11493;43.344;26.226;2023-07-30T09:50:33;98882.94;;;31.51;38.33
22653;BME280;11493;43.344;26.226;2023-07-30T09:53:02;98871.88;;;31.44;38.48
22653;BME280;11493;43.344;26.226;2023-07-30T09:55:30;98882.44;;;31.44;36.19
22653;BME280;11493;43.344;26.226;2023-07-30T09:57:58;98876.09;;;31.40;37.37
22653;BME280;11493;43.344;26.226;2023-07-30T10:00:27;98878.84;;;31.52;37.78
22653;BME280;11493;43.344;26.226;2023-07-30T10:02:58;98868.13;;;31.56;35.99
22653;BME280;11493;43.344;26.226;2023-07-30T10:05:31;98862.59;;;31.62;36.65
22653;BME280;11493;43.344;26.226;2023-07-30T10:08:03;98869.22;;;31.59;35.56
22653;BME280;11493;43.344;26.226;2023-07-30T10:10:32;98852.16;;;31.59;35.32
22653;BME280;11493;43.344;26.226;2023-07-30T10:13:03;98850.75;;;31.63;36.45
22653;BME280;11493;43.344;26.226;2023-07-30T10:15:37;98852.72;;;31.76;35.65
22653;BME280;11493;43.344;26.226;2023-07-30T10:18:05;98847.69;;;31.89;35.80
22653;BME280;11493;43.344;26.226;2023-07-30T10:20:33;98844.06;;;31.97;35.04
22653;BME280;11493;43.344;26.226;2023-07-30T10:23:00;98850.06;;;31.99;34.19
22653;BME280;11493;43.344;26.226;2023-07-30T10:25:48;98836.78;;;31.96;35.53
22653;BME280;11493;43.344;26.226;2023-07-30T10:28:37;98854.03;;;32.02;35.58
22653;BME280;11493;43.344;26.226;2023-07-30T10:31:07;98839.00;;;32.11;33.71
22653;BME280;11493;43.344;26.226;2023-07-30T10:33:51;98835.22;;;32.05;33.45
22653;BME280;11493;43.344;26.226;2023-07-30T10:36:34;98827.94;;;31.85;34.31
22653;BME280;11493;43.344;26.226;2023-07-30T10:39:20;98828.56;;;31.89;36.06
22653;BME280;11493;43.344;26.226;2023-07-30T10:41:51;98821.94;;;32.11;35.08
22653;BME280;11493;43.344;26.226;2023-07-30T10:44:31;98827.63;;;32.11;34.39
22653;BME280;11493;43.344;26.226;2023-07-30T10:47:29;98812.13;;;32.12;34.45
22653;BME280;11493;43.344;26.226;2023-07-30T10:50:09;98814.50;;;32.13;34.38
22653;BME280;11493;43.344;26.226;2023-07-30T10:52:38;98819.72;;;32.15;35.16
22653;BME280;11493;43.344;26.226;2023-07-30T10:55:06;98811.50;;;32.08;35.11
22653;BME280;11493;43.344;26.226;2023-07-30T10:57:35;98811.22;;;32.24;34.74
22653;BME280;11493;43.344;26.226;2023-07-30T11:00:09;98798.88;;;32.36;33.77
22653;BME280;11493;43.344;26.226;2023-07-30T11:02:37;98801.88;;;32.32;34.28
22653;BME280;11493;43.344;26.226;2023-07-30T11:05:14;98803.16;;;32.31;35.31
22653;BME280;11493;43.344;26.226;2023-07-30T11:07:49;98802.84;;;32.29;35.80
22653;BME280;11493;43.344;26.226;2023-07-30T11:10:17;98803.13;;;32.59;33.96
22653;BME280;11493;43.344;26.226;2023-07-30T11:12:44;98803.59;;;32.66;33.51
22653;BME280;11493;43.344;26.226;2023-07-30T11:15:12;98793.41;;;32.75;33.71
22653;BME280;11493;43.344;26.226;2023-07-30T11:17:42;98801.34;;;32.71;33.94
22653;BME280;11493;43.344;26.226;2023-07-30T11:20:25;98797.69;;;32.79;33.15
22653;BME280;11493;43.344;26.226;2023-07-30T11:22:55;98800.88;;;32.81;32.63
22653;BME280;11493;43.344;26.226;2023-07-30T11:25:22;98794.53;;;32.86;32.30
22653;BME280;11493;43.344;26.226;2023-07-30T11:27:50;98800.19;;;32.95;31.82
22653;BME280;11493;43.344;26.226;2023-07-30T11:30:19;98790.19;;;33.00;31.98
22653;BME280;11493;43.344;26.226;2023-07-30T11:32:47;98791.16;;;32.97;31.93
22653;BME280;11493;43.344;26.226;2023-07-30T11:35:16;98773.28;;;32.96;31.83
22653;BME280;11493;43.344;26.226;2023-07-30T11:37:44;98777.53;;;33.01;30.83
22653;BME280;11493;43.344;26.226;2023-07-30T11:40:15;98778.47;;;33.07;31.08
22653;BME280;11493;43.344;26.226;2023-07-30T11:42:42;98774.50;;;33.05;30.36
22653;BME280;11493;43.344;26.226;2023-07-30T11:45:20;98776.72;;;33.10;30.56
22653;BME280;11493;43.344;26.226;2023-07-30T11:47:49;98768.31;;;33.06;31.11
22653;BME280;11493;43.344;26.226;2023-07-30T11:50:16;98764.25;;;32.98;29.89
22653;BME280;11493;43.344;26.226;2023-07-30T11:52:56;98773.56;;;33.08;31.86
22653;BME280;11493;43.344;26.226;2023-07-30T11:55:37;98762.25;;;33.22;30.89
22653;BME280;11493;43.344;26.226;2023-07-30T11:58:06;98756.53;;;33.22;31.21
22653;BME280;11493;43.344;26.226;2023-07-30T12:00:44;98744.16;;;33.35;30.85
22653;BME280;11493;43.344;26.226;2023-07-30T12:03:12;98757.94;;;33.36;32.49
22653;BME280;11493;43.344;26.226;2023-07-30T12:05:41;98744.81;;;33.29;31.77
22653;BME280;11493;43.344;26.226;2023-07-30T12:08:13;98748.97;;;33.43;32.11
22653;BME280;11493;43.344;26.226;2023-07-30T12:10:53;98745.94;;;33.47;31.29
22653;BME280;11493;43.344;26.226;2023-07-30T12:13:24;98731.38;;;33.45;30.53
22653;BME280;11493;43.344;26.226;2023-07-30T12:15:55;98731.94;;;33.58;31.11
22653;BME280;11493;43.344;26.226;2023-07-30T12:18:24;98737.88;;;33.69;31.21
22653;BME280;11493;43.344;26.226;2023-07-30T12:20:53;98719.78;;;33.72;30.36
22653;BME280;11493;43.344;26.226;2023-07-30T12:23:20;98718.63;;;33.79;31.01
22653;BME280;11493;43.344;26.226;2023-07-30T12:25:47;98726.09;;;33.76;31.08
22653;BME280;11493;43.344;26.226;2023-07-30T12:28:14;98711.97;;;33.82;31.59
22653;BME280;11493;43.344;26.226;2023-07-30T12:30:41;98715.91;;;33.84;32.12
22653;BME280;11493;43.344;26.226;2023-07-30T12:33:09;98716.75;;;34.00;30.90
22653;BME280;11493;43.344;26.226;2023-07-30T12:35:36;98712.31;;;33.99;30.97
22653;BME280;11493;43.344;26.226;2023-07-30T12:38:04;98707.59;;;33.95;31.02
22653;BME280;11493;43.344;26.226;2023-07-30T12:40:31;98713.81;;;34.09;30.75
22653;BME280;11493;43.344;26.226;2023-07-30T12:43:02;98710.75;;;34.12;30.32
22653;BME280;11493;43.344;26.226;2023-07-30T12:45:30;98701.22;;;34.15;29.19
22653;BME280;11493;43.344;26.226;2023-07-30T12:48:01;98707.13;;;34.12;30.30
22653;BME280;11493;43.344;26.226;2023-07-30T12:50:29;98703.28;;;34.15;30.23
22653;BME280;11493;43.344;26.226;2023-07-30T12:52:56;98695.41;;;34.10;30.43
22653;BME280;11493;43.344;26.226;2023-07-30T12:55:23;98691.25;;;34.11;29.72